sensor_id;sensor_type;location;lat;lon;timestamp;P1;durP1;ratioP1;P2;durP2;ratioP2
22378;SDS011;11357;49.990;7.370;2022-09-03T00:00:44;1999.90;;;999.90;;
22378;SDS011;11357;49.990;7.370;2022-09-03T00:03:20;1999.90;;;999.90;;
22378;SDS011;11357;49.990;7.370;2022-09-03T00:06:12;1980.73;;;999.90;;
22378;SDS011;11357;49.990;7.370;2022-09-03T00:11:18;1999.90;;;999.90;;
22378;SDS011;11357;49.990;7.370;2022-09-03T00:13:59;1912.83;;;999.90;;
22378;SDS011;11357;49.990;7.370;2022-09-03T00:16:30;1972.87;;;999.90;;
22378;SDS011;11357;49.990;7.370;2022-09-03T00:19:09;1999.90;;;999.90;;
22378;SDS011;11357;49.990;7.370;2022-09-03T00:21:42;1999.90;;;999.90;;
22378;SDS011;11357;49.990;7.370;2022-09-03T00:24:11;1999.90;;;999.90;;
22378;SDS011;11357;49.990;7.370;2022-09-03T00:26:42;1999.90;;;999.90;;
22378;SDS011;11357;49.990;7.370;2022-09-03T00:29:12;1999.90;;;999.90;;
22378;SDS011;11357;49.990;7.370;2022-09-03T00:31:43;1999.90;;;999.90;;
22378;SDS011;11357;49.990;7.370;2022-09-03T00:36:45;1999.90;;;999.90;;
22378;SDS011;11357;49.990;7.370;2022-09-03T00:39:17;1999.90;;;999.90;;
22378;SDS011;11357;49.990;7.370;2022-09-03T00:50:22;1999.90;;;999.90;;
22378;SDS011;11357;49.990;7.370;2022-09-03T01:00:50;1999.90;;;999.90;;
22378;SDS011;11357;49.990;7.370;2022-09-03T01:03:38;1999.90;;;999.90;;
22378;SDS011;11357;49.990;7.370;2022-09-03T01:06:18;1999.90;;;993.60;;
22378;SDS011;11357;49.990;7.370;2022-09-03T01:11:52;1999.90;;;999.90;;
22378;SDS011;11357;49.990;7.370;2022-09-03T01:17:15;1999.90;;;999.90;;
22378;SDS011;11357;49.990;7.370;2022-09-03T01:25:58;1999.90;;;999.90;;
22378;SDS011;11357;49.990;7.370;2022-09-03T01:31:26;1999.90;;;999.90;;
22378;SDS011;11357;49.990;7.370;2022-09-03T01:39:28;1999.90;;;999.90;;
22378;SDS011;11357;49.990;7.370;2022-09-03T01:42:19;1999.90;;;990.97;;
22378;SDS011;11357;49.990;7.370;2022-09-03T01:45:06;1999.90;;;999.90;;
22378;SDS011;11357;49.990;7.370;2022-09-03T02:00:49;1373.27;;;322.27;;
22378;SDS011;11357;49.990;7.370;2022-09-03T02:03:21;1881.77;;;785.17;;
22378;SDS011;11357;49.990;7.370;2022-09-03T02:05:49;1999.90;;;815.50;;
22378;SDS011;11357;49.990;7.370;2022-09-03T02:08:17;1999.90;;;645.07;;
22378;SDS011;11357;49.990;7.370;2022-09-03T02:10:46;1999.90;;;919.77;;
22378;SDS011;11357;49.990;7.370;2022-09-03T02:13:21;1999.90;;;630.53;;
22378;SDS011;11357;49.990;7.370;2022-09-03T02:15:51;1999.90;;;999.90;;
22378;SDS011;11357;49.990;7.370;2022-09-03T02:18:24;1999.90;;;999.90;;
22378;SDS011;11357;49.990;7.370;2022-09-03T02:20:53;1999.90;;;999.90;;
22378;SDS011;11357;49.990;7.370;2022-09-03T02:23:20;1999.90;;;999.90;;
22378;SDS011;11357;49.990;7.370;2022-09-03T02:25:49;1999.90;;;999.90;;
22378;SDS011;11357;49.990;7.370;2022-09-03T02:28:16;1999.90;;;999.90;;
22378;SDS011;11357;49.990;7.370;2022-09-03T02:30:42;1999.90;;;999.90;;
22378;SDS011;11357;49.990;7.370;2022-09-03T02:33:08;1999.90;;;999.90;;
22378;SDS011;11357;49.990;7.370;2022-09-03T02:35:35;1999.90;;;999.90;;
22378;SDS011;11357;49.990;7.370;2022-09-03T02:38:10;1999.90;;;999.90;;
22378;SDS011;11357;49.990;7.370;2022-09-03T02:40:37;1999.90;;;999.90;;
22378;SDS011;11357;49.990;7.370;2022-09-03T02:43:03;1999.90;;;999.90;;
22378;SDS011;11357;49.990;7.370;2022-09-03T02:45:32;1999.90;;;999.90;;
22378;SDS011;11357;49.990;7.370;2022-09-03T02:48:01;1999.90;;;999.90;;
22378;SDS011;11357;49.990;7.370;2022-09-03T02:50:28;1999.90;;;999.90;;
22378;SDS011;11357;49.990;7.370;2022-09-03T02:52:53;1999.90;;;999.90;;
22378;SDS011;11357;49.990;7.370;2022-09-03T02:55:20;1999.90;;;999.90;;
22378;SDS011;11357;49.990;7.370;2022-09-03T02:57:45;1999.90;;;999.90;;
22378;SDS011;11357;49.990;7.370;2022-09-03T03:00:11;1999.90;;;999.90;;
22378;SDS011;11357;49.990;7.370;2022-09-03T03:02:38;1371.23;;;999.90;;
22378;SDS011;11357;49.990;7.370;2022-09-03T03:05:04;1402.63;;;999.90;;
22378;SDS011;11357;49.990;7.370;2022-09-03T03:07:33;1162.27;;;970.90;;
22378;SDS011;11357;49.990;7.370;2022-09-03T03:10:02;945.37;;;843.47;;
22378;SDS011;11357;49.990;7.370;2022-09-03T03:12:28;1086.03;;;946.37;;
22378;SDS011;11357;49.990;7.370;2022-09-03T03:14:55;1122.70;;;929.07;;
22378;SDS011;11357;49.990;7.370;2022-09-03T03:17:21;1240.67;;;988.10;;
22378;SDS011;11357;49.990;7.370;2022-09-03T03:19:46;1554.03;;;999.90;;
22378;SDS011;11357;49.990;7.370;2022-09-03T03:22:13;1742.90;;;999.90;;
22378;SDS011;11357;49.990;7.370;2022-09-03T03:24:38;1853.83;;;999.90;;
22378;SDS011;11357;49.990;7.370;2022-09-03T03:27:04;1119.10;;;960.97;;
22378;SDS011;11357;49.990;7.370;2022-09-03T03:29:32;1534.97;;;999.90;;
22378;SDS011;11357;49.990;7.370;2022-09-03T03:31:57;1279.57;;;996.50;;
22378;SDS011;11357;49.990;7.370;2022-09-03T03:34:23;1459.90;;;999.90;;
22378;SDS011;11357;49.990;7.370;2022-09-03T03:36:49;1160.73;;;971.50;;
22378;SDS011;11357;49.990;7.370;2022-09-03T03:39:14;1653.90;;;999.90;;
22378;SDS011;11357;49.990;7.370;2022-09-03T03:41:40;1550.30;;;999.90;;
22378;SDS011;11357;49.990;7.370;2022-09-03T03:44:06;1625.00;;;999.90;;
22378;SDS011;11357;49.990;7.370;2022-09-03T03:46:34;1428.47;;;999.90;;
22378;SDS011;11357;49.990;7.370;2022-09-03T03:49:04;1309.50;;;985.00;;
22378;SDS011;11357;49.990;7.370;2022-09-03T03:51:31;1576.23;;;999.90;;
22378;SDS011;11357;49.990;7.370;2022-09-03T03:53:57;1272.73;;;997.90;;
22378;SDS011;11357;49.990;7.370;2022-09-03T03:56:24;1293.37;;;975.70;;
22378;SDS011;11357;49.990;7.370;2022-09-03T03:58:51;1360.80;;;999.07;;
22378;SDS011;11357;49.990;7.370;2022-09-03T04:01:21;1468.50;;;999.90;;
22378;SDS011;11357;49.990;7.370;2022-09-03T04:03:49;1223.10;;;939.37;;
22378;SDS011;11357;49.990;7.370;2022-09-03T04:06:16;911.03;;;819.37;;
22378;SDS011;11357;49.990;7.370;2022-09-03T04:08:43;979.63;;;873.70;;
22378;SDS011;11357;49.990;7.370;2022-09-03T04:11:11;1057.70;;;907.40;;
22378;SDS011;11357;49.990;7.370;2022-09-03T04:13:41;1434.60;;;999.90;;
22378;SDS011;11357;49.990;7.370;2022-09-03T04:16:08;1393.67;;;999.90;;
22378;SDS011;11357;49.990;7.370;2022-09-03T04:18:36;1538.27;;;999.90;;
22378;SDS011;11357;49.990;7.370;2022-09-03T04:21:09;1653.50;;;999.90;;
22378;SDS011;11357;49.990;7.370;2022-09-03T04:23:37;1999.90;;;999.90;;
22378;SDS011;11357;49.990;7.370;2022-09-03T04:26:05;1414.77;;;999.90;;
22378;SDS011;11357;49.990;7.370;2022-09-03T04:28:32;1598.53;;;999.90;;
22378;SDS011;11357;49.990;7.370;2022-09-03T04:31:01;1452.43;;;999.90;;
22378;SDS011;11357;49.990;7.370;2022-09-03T04:33:32;1999.90;;;999.90;;
22378;SDS011;11357;49.990;7.370;2022-09-03T04:36:03;1513.57;;;987.90;;
22378;SDS011;11357;49.990;7.370;2022-09-03T04:38:31;630.37;;;567.70;;
22378;SDS011;11357;49.990;7.370;2022-09-03T04:40:58;415.80;;;380.27;;
22378;SDS011;11357;49.990;7.370;2022-09-03T04:43:25;193.13;;;172.37;;
22378;SDS011;11357;49.990;7.370;2022-09-03T04:45:54;113.33;;;87.10;;
22378;SDS011;11357;49.990;7.370;2022-09-03T04:48:21;80.93;;;44.67;;
22378;SDS011;11357;49.990;7.370;2022-09-03T04:50:46;37.23;;;11.23;;
22378;SDS011;11357;49.990;7.370;2022-09-03T04:53:12;8.73;;;6.70;;
22378;SDS011;11357;49.990;7.370;2022-09-03T04:55:38;14.80;;;7.27;;
22378;SDS011;11357;49.990;7.370;2022-09-03T04:58:05;11.00;;;7.67;;
22378;SDS011;11357;49.990;7.370;2022-09-03T05:00:34;12.00;;;7.60;;
22378;SDS011;11357;49.990;7.370;2022-09-03T05:03:01;7.27;;;6.53;;
22378;SDS011;11357;49.990;7.370;2022-09-03T05:05:29;5.90;;;5.47;;
22378;SDS011;11357;49.990;7.370;2022-09-03T05:08:02;6.37;;;5.10;;
22378;SDS011;11357;49.990;7.370;2022-09-03T05:10:28;40.20;;;10.90;;
22378;SDS011;11357;49.990;7.370;2022-09-03T05:15:25;4.07;;;3.77;;
22378;SDS011;11357;49.990;7.370;2022-09-03T05:17:56;5.63;;;4.07;;
22378;SDS011;11357;49.990;7.370;2022-09-03T05:20:22;6.07;;;4.57;;
22378;SDS011;11357;49.990;7.370;2022-09-03T05:22:49;5.67;;;3.93;;
22378;SDS011;11357;49.990;7.370;2022-09-03T05:25:14;8.63;;;4.23;;
22378;SDS011;11357;49.990;7.370;2022-09-03T05:27:40;4.43;;;4.03;;
22378;SDS011;11357;49.990;7.370;2022-09-03T05:30:06;8.73;;;4.77;;
22378;SDS011;11357;49.990;7.370;2022-09-03T05:32:32;5.40;;;4.90;;
22378;SDS011;11357;49.990;7.370;2022-09-03T05:34:58;8.37;;;3.07;;
22378;SDS011;11357;49.990;7.370;2022-09-03T05:37:24;5.43;;;4.90;;
22378;SDS011;11357;49.990;7.370;2022-09-03T05:39:50;4.03;;;3.63;;
22378;SDS011;11357;49.990;7.370;2022-09-03T05:42:15;8.33;;;3.83;;
22378;SDS011;11357;49.990;7.370;2022-09-03T05:44:41;18.40;;;9.00;;
22378;SDS011;11357;49.990;7.370;2022-09-03T05:47:08;34.23;;;16.13;;
22378;SDS011;11357;49.990;7.370;2022-09-03T05:49:33;41.67;;;15.00;;
22378;SDS011;11357;49.990;7.370;2022-09-03T05:51:59;58.17;;;21.67;;
22378;SDS011;11357;49.990;7.370;2022-09-03T05:54:25;79.07;;;40.20;;
22378;SDS011;11357;49.990;7.370;2022-09-03T05:56:51;82.87;;;46.60;;
22378;SDS011;11357;49.990;7.370;2022-09-03T05:59:16;86.40;;;54.70;;
22378;SDS011;11357;49.990;7.370;2022-09-03T06:01:43;63.70;;;31.63;;
22378;SDS011;11357;49.990;7.370;2022-09-03T06:04:13;85.93;;;50.60;;
22378;SDS011;11357;49.990;7.370;2022-09-03T06:06:41;84.07;;;57.90;;
22378;SDS011;11357;49.990;7.370;2022-09-03T06:09:10;119.07;;;84.40;;
22378;SDS011;11357;49.990;7.370;2022-09-03T06:11:38;126.87;;;102.70;;
22378;SDS011;11357;49.990;7.370;2022-09-03T06:14:08;81.00;;;47.07;;
22378;SDS011;11357;49.990;7.370;2022-09-03T06:16:36;154.13;;;138.30;;
22378;SDS011;11357;49.990;7.370;2022-09-03T06:19:04;105.43;;;77.17;;
22378;SDS011;11357;49.990;7.370;2022-09-03T06:21:38;152.53;;;130.40;;
22378;SDS011;11357;49.990;7.370;2022-09-03T06:24:07;175.57;;;156.87;;
22378;SDS011;11357;49.990;7.370;2022-09-03T06:26:37;111.43;;;71.43;;
22378;SDS011;11357;49.990;7.370;2022-09-03T06:29:04;144.73;;;126.53;;
22378;SDS011;11357;49.990;7.370;2022-09-03T06:31:29;134.23;;;94.93;;
22378;SDS011;11357;49.990;7.370;2022-09-03T06:33:55;234.00;;;211.27;;
22378;SDS011;11357;49.990;7.370;2022-09-03T06:36:22;189.77;;;169.20;;
22378;SDS011;11357;49.990;7.370;2022-09-03T06:38:53;331.07;;;300.40;;
22378;SDS011;11357;49.990;7.370;2022-09-03T06:41:20;603.23;;;548.00;;
22378;SDS011;11357;49.990;7.370;2022-09-03T06:43:56;464.30;;;422.50;;
22378;SDS011;11357;49.990;7.370;2022-09-03T06:46:26;307.87;;;279.33;;
22378;SDS011;11357;49.990;7.370;2022-09-03T06:48:52;530.17;;;482.03;;
22378;SDS011;11357;49.990;7.370;2022-09-03T06:51:23;613.87;;;560.60;;
22378;SDS011;11357;49.990;7.370;2022-09-03T06:53:51;398.67;;;365.77;;
22378;SDS011;11357;49.990;7.370;2022-09-03T06:56:20;446.47;;;405.33;;
22378;SDS011;11357;49.990;7.370;2022-09-03T06:58:50;318.40;;;287.03;;
22378;SDS011;11357;49.990;7.370;2022-09-03T07:01:24;106.13;;;77.47;;
22378;SDS011;11357;49.990;7.370;2022-09-03T07:03:51;144.47;;;126.60;;
22378;SDS011;11357;49.990;7.370;2022-09-03T07:06:22;122.17;;;92.30;;
22378;SDS011;11357;49.990;7.370;2022-09-03T07:08:50;86.77;;;54.50;;
22378;SDS011;11357;49.990;7.370;2022-09-03T07:11:17;77.97;;;46.90;;
22378;SDS011;11357;49.990;7.370;2022-09-03T07:13:46;84.57;;;57.73;;
22378;SDS011;11357;49.990;7.370;2022-09-03T07:16:14;92.93;;;63.43;;
22378;SDS011;11357;49.990;7.370;2022-09-03T07:18:40;89.63;;;52.23;;
22378;SDS011;11357;49.990;7.370;2022-09-03T07:21:15;88.20;;;43.73;;
22378;SDS011;11357;49.990;7.370;2022-09-03T07:23:45;66.43;;;36.57;;
22378;SDS011;11357;49.990;7.370;2022-09-03T07:26:33;72.70;;;31.77;;
22378;SDS011;11357;49.990;7.370;2022-09-03T07:29:02;63.27;;;27.73;;
22378;SDS011;11357;49.990;7.370;2022-09-03T07:31:29;11.67;;;7.30;;
22378;SDS011;11357;49.990;7.370;2022-09-03T07:33:59;28.77;;;10.60;;
22378;SDS011;11357;49.990;7.370;2022-09-03T07:36:28;45.47;;;9.33;;
22378;SDS011;11357;49.990;7.370;2022-09-03T07:38:57;49.67;;;15.43;;
22378;SDS011;11357;49.990;7.370;2022-09-03T07:41:24;53.10;;;14.27;;
22378;SDS011;11357;49.990;7.370;2022-09-03T07:43:50;45.33;;;17.03;;
22378;SDS011;11357;49.990;7.370;2022-09-03T07:46:21;57.60;;;14.27;;
22378;SDS011;11357;49.990;7.370;2022-09-03T07:48:51;49.83;;;8.53;;
22378;SDS011;11357;49.990;7.370;2022-09-03T07:51:20;8.50;;;5.83;;
22378;SDS011;11357;49.990;7.370;2022-09-03T07:53:51;23.03;;;9.03;;
22378;SDS011;11357;49.990;7.370;2022-09-03T07:56:18;17.83;;;5.33;;
22378;SDS011;11357;49.990;7.370;2022-09-03T07:58:44;16.60;;;6.00;;
22378;SDS011;11357;49.990;7.370;2022-09-03T08:01:12;12.37;;;6.80;;
22378;SDS011;11357;49.990;7.370;2022-09-03T08:03:43;24.27;;;7.13;;
22378;SDS011;11357;49.990;7.370;2022-09-03T08:06:13;10.07;;;4.67;;
22378;SDS011;11357;49.990;7.370;2022-09-03T08:08:40;8.17;;;4.70;;
22378;SDS011;11357;49.990;7.370;2022-09-03T08:11:12;8.87;;;4.30;;
22378;SDS011;11357;49.990;7.370;2022-09-03T08:13:44;4.23;;;2.40;;
22378;SDS011;11357;49.990;7.370;2022-09-03T08:16:13;10.93;;;4.77;;
22378;SDS011;11357;49.990;7.370;2022-09-03T08:18:40;8.07;;;3.93;;
22378;SDS011;11357;49.990;7.370;2022-09-03T08:21:13;7.47;;;3.87;;
22378;SDS011;11357;49.990;7.370;2022-09-03T08:23:41;10.17;;;4.00;;
22378;SDS011;11357;49.990;7.370;2022-09-03T08:26:08;11.87;;;5.63;;
22378;SDS011;11357;49.990;7.370;2022-09-03T08:28:35;6.63;;;4.60;;
22378;SDS011;11357;49.990;7.370;2022-09-03T08:33:38;6.37;;;5.70;;
22378;SDS011;11357;49.990;7.370;2022-09-03T08:36:09;15.83;;;5.40;;
22378;SDS011;11357;49.990;7.370;2022-09-03T08:38:37;14.33;;;5.23;;
22378;SDS011;11357;49.990;7.370;2022-09-03T08:44:04;12.87;;;4.57;;
22378;SDS011;11357;49.990;7.370;2022-09-03T08:46:33;43.50;;;8.70;;
22378;SDS011;11357;49.990;7.370;2022-09-03T08:49:53;47.47;;;12.00;;
22378;SDS011;11357;49.990;7.370;2022-09-03T08:55:02;19.90;;;8.82;;
22378;SDS011;11357;49.990;7.370;2022-09-03T08:57:39;70.03;;;32.92;;
22378;SDS011;11357;49.990;7.370;2022-09-03T09:00:10;58.87;;;24.47;;
22378;SDS011;11357;49.990;7.370;2022-09-03T09:05:18;101.75;;;61.08;;
22378;SDS011;11357;49.990;7.370;2022-09-03T09:07:51;78.78;;;55.22;;
22378;SDS011;11357;49.990;7.370;2022-09-03T09:10:26;107.55;;;58.50;;
22378;SDS011;11357;49.990;7.370;2022-09-03T09:21:48;139.85;;;118.45;;
22378;SDS011;11357;49.990;7.370;2022-09-03T09:24:26;171.77;;;135.95;;
22378;SDS011;11357;49.990;7.370;2022-09-03T09:26:59;475.98;;;430.80;;
22378;SDS011;11357;49.990;7.370;2022-09-03T09:29:30;615.95;;;559.35;;
22378;SDS011;11357;49.990;7.370;2022-09-03T09:31:59;329.83;;;299.13;;
22378;SDS011;11357;49.990;7.370;2022-09-03T09:34:24;818.13;;;732.65;;
22378;SDS011;11357;49.990;7.370;2022-09-03T09:36:52;1194.15;;;928.67;;
22378;SDS011;11357;49.990;7.370;2022-09-03T09:39:20;380.98;;;330.67;;
22378;SDS011;11357;49.990;7.370;2022-09-03T09:41:59;230.60;;;205.43;;
22378;SDS011;11357;49.990;7.370;2022-09-03T09:44:34;148.77;;;123.82;;
22378;SDS011;11357;49.990;7.370;2022-09-03T09:47:05;179.80;;;123.10;;
22378;SDS011;11357;49.990;7.370;2022-09-03T09:50:01;612.13;;;286.80;;
22378;SDS011;11357;49.990;7.370;2022-09-03T09:52:28;257.83;;;231.38;;
22378;SDS011;11357;49.990;7.370;2022-09-03T09:55:14;213.35;;;191.35;;
22378;SDS011;11357;49.990;7.370;2022-09-03T09:57:43;338.95;;;306.75;;
22378;SDS011;11357;49.990;7.370;2022-09-03T10:00:10;420.67;;;379.60;;
22378;SDS011;11357;49.990;7.370;2022-09-03T10:02:38;520.60;;;468.45;;
22378;SDS011;11357;49.990;7.370;2022-09-03T10:07:56;857.65;;;765.97;;
22378;SDS011;11357;49.990;7.370;2022-09-03T10:10:26;1089.57;;;882.63;;
22378;SDS011;11357;49.990;7.370;2022-09-03T10:17:38;806.97;;;683.15;;
22378;SDS011;11357;49.990;7.370;2022-09-03T10:27:31;1775.63;;;997.72;;
22378;SDS011;11357;49.990;7.370;2022-09-03T10:35:03;1999.90;;;999.90;;
22378;SDS011;11357;49.990;7.370;2022-09-03T10:43:42;1999.90;;;999.90;;
22378;SDS011;11357;49.990;7.370;2022-09-03T10:46:23;1999.90;;;999.90;;
22378;SDS011;11357;49.990;7.370;2022-09-03T10:51:49;1679.30;;;995.65;;
22378;SDS011;11357;49.990;7.370;2022-09-03T11:00:01;1797.78;;;999.90;;
22378;SDS011;11357;49.990;7.370;2022-09-03T11:06:22;1814.13;;;999.90;;
22378;SDS011;11357;49.990;7.370;2022-09-03T11:08:37;1944.15;;;999.90;;
22378;SDS011;11357;49.990;7.370;2022-09-03T11:11:10;1877.97;;;999.90;;
22378;SDS011;11357;49.990;7.370;2022-09-03T11:14:02;1999.90;;;999.90;;
22378;SDS011;11357;49.990;7.370;2022-09-03T11:16:34;1999.90;;;999.90;;
22378;SDS011;11357;49.990;7.370;2022-09-03T11:19:33;1999.90;;;999.90;;
22378;SDS011;11357;49.990;7.370;2022-09-03T11:22:14;1999.90;;;999.90;;
22378;SDS011;11357;49.990;7.370;2022-09-03T11:24:52;1999.90;;;999.90;;
22378;SDS011;11357;49.990;7.370;2022-09-03T11:27:35;1999.90;;;999.90;;
22378;SDS011;11357;49.990;7.370;2022-09-03T11:30:11;1999.90;;;975.00;;
22378;SDS011;11357;49.990;7.370;2022-09-03T11:32:46;1999.90;;;809.22;;
22378;SDS011;11357;49.990;7.370;2022-09-03T11:37:53;1999.90;;;836.20;;
22378;SDS011;11357;49.990;7.370;2022-09-03T11:40:42;1999.90;;;995.97;;
22378;SDS011;11357;49.990;7.370;2022-09-03T11:45:59;1999.90;;;999.90;;
22378;SDS011;11357;49.990;7.370;2022-09-03T11:48:48;1999.90;;;999.90;;
22378;SDS011;11357;49.990;7.370;2022-09-03T11:51:17;1999.90;;;999.90;;
22378;SDS011;11357;49.990;7.370;2022-09-03T11:53:52;1999.90;;;999.90;;
22378;SDS011;11357;49.990;7.370;2022-09-03T11:56:20;1999.90;;;999.90;;
22378;SDS011;11357;49.990;7.370;2022-09-03T11:58:57;1999.90;;;997.83;;
22378;SDS011;11357;49.990;7.370;2022-09-03T12:01:29;1999.90;;;867.13;;
22378;SDS011;11357;49.990;7.370;2022-09-03T12:04:01;1999.90;;;957.80;;
22378;SDS011;11357;49.990;7.370;2022-09-03T12:17:49;1999.90;;;885.92;;
22378;SDS011;11357;49.990;7.370;2022-09-03T12:20:44;1999.90;;;630.85;;
22378;SDS011;11357;49.990;7.370;2022-09-03T12:23:11;1999.90;;;999.90;;
22378;SDS011;11357;49.990;7.370;2022-09-03T12:25:58;1831.80;;;999.90;;
22378;SDS011;11357;49.990;7.370;2022-09-03T12:28:30;971.90;;;845.38;;
22378;SDS011;11357;49.990;7.370;2022-09-03T12:31:06;812.35;;;725.47;;
22378;SDS011;11357;49.990;7.370;2022-09-03T12:33:44;233.20;;;207.93;;
22378;SDS011;11357;49.990;7.370;2022-09-03T12:36:12;92.35;;;60.60;;
22378;SDS011;11357;49.990;7.370;2022-09-03T12:38:38;85.80;;;32.10;;
22378;SDS011;11357;49.990;7.370;2022-09-03T12:41:03;76.97;;;36.58;;
22378;SDS011;11357;49.990;7.370;2022-09-03T12:43:29;52.83;;;20.88;;
22378;SDS011;11357;49.990;7.370;2022-09-03T12:45:55;55.38;;;15.40;;
22378;SDS011;11357;49.990;7.370;2022-09-03T12:48:21;3.97;;;3.67;;
22378;SDS011;11357;49.990;7.370;2022-09-03T12:50:48;18.38;;;5.05;;
22378;SDS011;11357;49.990;7.370;2022-09-03T12:53:24;22.17;;;4.70;;
22378;SDS011;11357;49.990;7.370;2022-09-03T12:55:54;5.28;;;4.78;;
22378;SDS011;11357;49.990;7.370;2022-09-03T13:00:56;4.32;;;3.92;;
22378;SDS011;11357;49.990;7.370;2022-09-03T13:06:27;18.17;;;7.00;;
22378;SDS011;11357;49.990;7.370;2022-09-03T13:08:58;32.90;;;6.82;;
22378;SDS011;11357;49.990;7.370;2022-09-03T13:11:26;5.90;;;5.35;;
22378;SDS011;11357;49.990;7.370;2022-09-03T13:14:00;3.80;;;3.50;;
22378;SDS011;11357;49.990;7.370;2022-09-03T13:19:16;4.22;;;3.83;;
22378;SDS011;11357;49.990;7.370;2022-09-03T13:27:53;6.97;;;4.82;;
22378;SDS011;11357;49.990;7.370;2022-09-03T13:35:11;6.78;;;5.10;;
22378;SDS011;11357;49.990;7.370;2022-09-03T13:43:41;4.40;;;4.00;;
22378;SDS011;11357;49.990;7.370;2022-09-03T13:48:40;3.83;;;3.42;;
22378;SDS011;11357;49.990;7.370;2022-09-03T14:04:43;4.25;;;3.53;;
22378;SDS011;11357;49.990;7.370;2022-09-03T14:19:14;4.40;;;3.42;;
22378;SDS011;11357;49.990;7.370;2022-09-03T14:21:53;4.30;;;3.60;;
22378;SDS011;11357;49.990;7.370;2022-09-03T14:24:27;5.15;;;4.03;;
22378;SDS011;11357;49.990;7.370;2022-09-03T14:27:04;4.60;;;3.80;;
22378;SDS011;11357;49.990;7.370;2022-09-03T14:29:32;3.63;;;3.30;;
22378;SDS011;11357;49.990;7.370;2022-09-03T14:32:13;4.45;;;4.05;;
22378;SDS011;11357;49.990;7.370;2022-09-03T15:00:54;5.40;;;3.13;;
22378;SDS011;11357;49.990;7.370;2022-09-03T15:03:17;5.53;;;2.95;;
22378;SDS011;11357;49.990;7.370;2022-09-03T15:09:09;4.32;;;3.92;;
22378;SDS011;11357;49.990;7.370;2022-09-03T15:12:27;5.50;;;3.78;;
22378;SDS011;11357;49.990;7.370;2022-09-03T15:15:20;12.02;;;4.10;;
22378;SDS011;11357;49.990;7.370;2022-09-03T15:17:54;4.85;;;4.30;;
22378;SDS011;11357;49.990;7.370;2022-09-03T15:36:41;38.72;;;8.45;;
22378;SDS011;11357;49.990;7.370;2022-09-03T15:39:32;29.08;;;8.18;;
22378;SDS011;11357;49.990;7.370;2022-09-03T15:42:03;13.02;;;7.53;;
22378;SDS011;11357;49.990;7.370;2022-09-03T15:45:01;8.02;;;7.35;;
22378;SDS011;11357;49.990;7.370;2022-09-03T15:55:11;10.98;;;6.72;;
22378;SDS011;11357;49.990;7.370;2022-09-03T16:00:37;3.22;;;2.75;;
22378;SDS011;11357;49.990;7.370;2022-09-03T16:03:10;53.60;;;9.52;;
22378;SDS011;11357;49.990;7.370;2022-09-03T16:11:27;3.40;;;3.10;;
22378;SDS011;11357;49.990;7.370;2022-09-03T16:14:02;3.58;;;3.28;;
22378;SDS011;11357;49.990;7.370;2022-09-03T16:21:58;6.72;;;5.03;;
22378;SDS011;11357;49.990;7.370;2022-09-03T16:27:04;2.97;;;2.67;;
22378;SDS011;11357;49.990;7.370;2022-09-03T16:29:38;3.50;;;2.88;;
22378;SDS011;11357;49.990;7.370;2022-09-03T16:32:06;3.35;;;3.05;;
22378;SDS011;11357;49.990;7.370;2022-09-03T16:34:58;7.82;;;6.40;;
22378;SDS011;11357;49.990;7.370;2022-09-03T16:46:23;27.08;;;7.28;;
22378;SDS011;11357;49.990;7.370;2022-09-03T16:49:23;11.73;;;7.43;;
22378;SDS011;11357;49.990;7.370;2022-09-03T16:51:55;11.63;;;5.88;;
22378;SDS011;11357;49.990;7.370;2022-09-03T17:00:13;13.40;;;5.43;;
22378;SDS011;11357;49.990;7.370;2022-09-03T17:08:21;6.60;;;4.30;;
22378;SDS011;11357;49.990;7.370;2022-09-03T17:14:00;2.80;;;2.60;;
22378;SDS011;11357;49.990;7.370;2022-09-03T17:16:49;3.90;;;3.60;;
22378;SDS011;11357;49.990;7.370;2022-09-03T17:19:49;8.77;;;5.43;;
22378;SDS011;11357;49.990;7.370;2022-09-03T17:25:10;2.70;;;2.50;;
22378;SDS011;11357;49.990;7.370;2022-09-03T17:36:21;4.50;;;4.05;;
22378;SDS011;11357;49.990;7.370;2022-09-03T17:49:33;2.05;;;1.60;;
22378;SDS011;11357;49.990;7.370;2022-09-03T17:54:57;3.42;;;2.13;;
22378;SDS011;11357;49.990;7.370;2022-09-03T17:57:28;2.40;;;1.30;;
22378;SDS011;11357;49.990;7.370;2022-09-03T18:05:25;2.28;;;2.08;;
22378;SDS011;11357;49.990;7.370;2022-09-03T18:08:07;3.97;;;1.83;;
22378;SDS011;11357;49.990;7.370;2022-09-03T18:11:01;3.17;;;2.38;;
22378;SDS011;11357;49.990;7.370;2022-09-03T18:16:25;1.95;;;1.75;;
22378;SDS011;11357;49.990;7.370;2022-09-03T18:18:57;2.22;;;2.00;;
22378;SDS011;11357;49.990;7.370;2022-09-03T18:21:53;5.78;;;1.25;;
22378;SDS011;11357;49.990;7.370;2022-09-03T18:24:44;1.90;;;1.60;;
22378;SDS011;11357;49.990;7.370;2022-09-03T18:27:38;2.95;;;2.70;;
22378;SDS011;11357;49.990;7.370;2022-09-03T18:30:28;1.85;;;1.33;;
22378;SDS011;11357;49.990;7.370;2022-09-03T18:33:12;4.65;;;1.60;;
22378;SDS011;11357;49.990;7.370;2022-09-03T18:35:58;3.25;;;2.95;;
22378;SDS011;11357;49.990;7.370;2022-09-03T18:38:42;3.45;;;2.20;;
22378;SDS011;11357;49.990;7.370;2022-09-03T18:56:48;3.60;;;2.20;;
22378;SDS011;11357;49.990;7.370;2022-09-03T19:05:59;2.67;;;2.47;;
22378;SDS011;11357;49.990;7.370;2022-09-03T19:15:00;2.57;;;2.33;;
22378;SDS011;11357;49.990;7.370;2022-09-03T19:20:55;4.37;;;2.60;;
22378;SDS011;11357;49.990;7.370;2022-09-03T19:23:46;3.08;;;2.45;;
22378;SDS011;11357;49.990;7.370;2022-09-03T19:26:38;3.83;;;3.13;;
22378;SDS011;11357;49.990;7.370;2022-09-03T19:35:42;8.50;;;3.10;;
22378;SDS011;11357;49.990;7.370;2022-09-03T19:45:16;9.73;;;4.73;;
22378;SDS011;11357;49.990;7.370;2022-09-03T19:48:28;13.53;;;3.43;;
22378;SDS011;11357;49.990;7.370;2022-09-03T19:51:29;11.93;;;3.90;;
22378;SDS011;11357;49.990;7.370;2022-09-03T19:54:18;11.67;;;3.30;;
22378;SDS011;11357;49.990;7.370;2022-09-03T19:57:07;6.23;;;3.67;;
22378;SDS011;11357;49.990;7.370;2022-09-03T19:59:53;3.63;;;3.33;;
22378;SDS011;11357;49.990;7.370;2022-09-03T20:02:39;9.73;;;4.10;;
22378;SDS011;11357;49.990;7.370;2022-09-03T20:05:25;3.23;;;2.93;;
22378;SDS011;11357;49.990;7.370;2022-09-03T20:08:10;4.00;;;3.70;;
22378;SDS011;11357;49.990;7.370;2022-09-03T20:10:58;5.00;;;2.90;;
22378;SDS011;11357;49.990;7.370;2022-09-03T20:13:24;36.97;;;4.77;;
22378;SDS011;11357;49.990;7.370;2022-09-03T20:16:06;7.30;;;3.87;;
22378;SDS011;11357;49.990;7.370;2022-09-03T20:18:43;6.10;;;3.77;;
22378;SDS011;11357;49.990;7.370;2022-09-03T20:21:24;8.50;;;4.00;;
22378;SDS011;11357;49.990;7.370;2022-09-03T20:32:25;7.53;;;5.33;;
22378;SDS011;11357;49.990;7.370;2022-09-03T20:35:24;8.83;;;4.67;;
22378;SDS011;11357;49.990;7.370;2022-09-03T20:40:41;46.57;;;7.90;;
22378;SDS011;11357;49.990;7.370;2022-09-03T20:46:38;3.67;;;3.37;;
22378;SDS011;11357;49.990;7.370;2022-09-03T20:57:16;8.47;;;3.37;;
22378;SDS011;11357;49.990;7.370;2022-09-03T21:00:00;7.30;;;3.90;;
22378;SDS011;11357;49.990;7.370;2022-09-03T21:11:01;7.47;;;4.60;;
22378;SDS011;11357;49.990;7.370;2022-09-03T21:13:49;8.10;;;4.30;;